createdAt,value
2018-12-12T00:00:34.138Z,4.43
2018-12-12T00:01:34.111Z,4.39
2018-12-12T00:02:34.085Z,4.53
2018-12-12T00:03:34.059Z,4.46
2018-12-12T00:04:34.032Z,4.48
2018-12-12T00:05:34.008Z,4.53
2018-12-12T00:06:33.981Z,4.50
2018-12-12T00:07:33.954Z,4.46
2018-12-12T00:08:33.932Z,4.45
2018-12-12T00:09:33.902Z,4.50
2018-12-12T00:10:33.877Z,4.52
2018-12-12T00:11:33.851Z,4.40
2018-12-12T00:12:33.824Z,4.34
2018-12-12T00:13:33.798Z,4.34
2018-12-12T00:14:33.771Z,4.30
2018-12-12T00:15:33.747Z,4.36
2018-12-12T00:16:33.718Z,4.31
2018-12-12T00:17:33.694Z,4.24
2018-12-12T00:18:33.667Z,4.14
2018-12-12T00:19:33.641Z,4.16
2018-12-12T00:20:33.617Z,4.12
2018-12-12T00:21:33.588Z,4.12
2018-12-12T00:22:33.562Z,4.06
2018-12-12T00:23:33.540Z,4.04
2018-12-12T00:24:33.510Z,3.95
2018-12-12T00:25:33.484Z,4.07
2018-12-12T00:26:33.461Z,3.91
2018-12-12T00:27:33.431Z,3.89
2018-12-12T00:28:33.404Z,3.88
2018-12-12T00:29:33.381Z,3.89
2018-12-12T00:30:33.352Z,3.81
2018-12-12T00:31:33.326Z,3.77
2018-12-12T00:32:33.302Z,3.78
2018-12-12T00:33:33.274Z,3.81
2018-12-12T00:34:33.249Z,3.73
2018-12-12T00:35:33.221Z,3.76
2018-12-12T00:36:33.195Z,3.74
2018-12-12T00:37:33.173Z,3.73
2018-12-12T00:38:33.142Z,3.77
2018-12-12T00:39:33.116Z,3.82
2018-12-12T00:40:33.089Z,3.74
2018-12-12T00:41:33.063Z,3.82
2018-12-12T00:42:33.035Z,3.78
2018-12-12T00:43:33.010Z,3.81
2018-12-12T00:44:32.983Z,3.88
2018-12-12T00:45:32.959Z,3.91
2018-12-12T00:46:32.930Z,3.86
2018-12-12T00:47:32.904Z,3.85
2018-12-12T00:48:32.878Z,3.95
2018-12-12T00:49:32.859Z,3.91
2018-12-12T00:50:32.825Z,3.95
2018-12-12T00:51:32.799Z,3.96
2018-12-12T00:52:32.774Z,4.06
2018-12-12T00:53:32.746Z,4.04
2018-12-12T00:54:32.718Z,4.03
2018-12-12T00:55:32.692Z,4.04
2018-12-12T00:56:32.664Z,4.07
2018-12-12T00:57:32.640Z,4.06
2018-12-12T00:58:32.614Z,4.07
2018-12-12T00:59:32.589Z,4.06
2018-12-12T01:00:32.560Z,4.03
2018-12-12T01:01:32.534Z,4.13
2018-12-12T01:02:32.510Z,4.14
2018-12-12T01:03:32.480Z,4.10
2018-12-12T01:04:32.454Z,4.12
2018-12-12T01:05:32.427Z,4.16
2018-12-12T01:06:32.402Z,4.16
2018-12-12T01:07:32.380Z,4.16
2018-12-12T01:08:32.358Z,4.14
2018-12-12T01:09:32.326Z,4.12
2018-12-12T01:10:32.296Z,4.13
2018-12-12T01:11:32.271Z,4.16
2018-12-12T01:12:32.245Z,4.12
2018-12-12T01:13:32.216Z,4.09
2018-12-12T01:14:32.193Z,4.14
2018-12-12T01:15:32.167Z,4.16
2018-12-12T01:16:32.138Z,4.18
2018-12-12T01:17:32.112Z,4.22
2018-12-12T01:18:32.086Z,4.27
2018-12-12T01:19:32.082Z,4.25
2018-12-12T01:20:32.032Z,4.16
2018-12-12T01:21:32.033Z,4.24
2018-12-12T01:22:31.980Z,4.21
2018-12-12T01:23:31.954Z,4.16
2018-12-12T01:24:31.927Z,4.22
2018-12-12T01:25:31.903Z,4.22
2018-12-12T01:26:31.876Z,4.31
2018-12-12T01:27:31.853Z,4.20
2018-12-12T01:28:31.821Z,4.30
2018-12-12T01:29:31.798Z,4.24
2018-12-12T01:30:31.771Z,4.27
2018-12-12T01:31:31.743Z,4.28
2018-12-12T01:32:31.720Z,4.22
2018-12-12T01:33:31.697Z,4.21
2018-12-12T01:34:31.668Z,4.22
2018-12-12T01:35:31.639Z,4.30
2018-12-12T01:36:31.611Z,4.25
2018-12-12T01:37:31.591Z,4.22
2018-12-12T01:38:31.559Z,4.30
2018-12-12T01:39:31.533Z,4.32
2018-12-12T01:40:31.507Z,4.31
2018-12-12T01:41:31.481Z,4.28
2018-12-12T01:42:31.454Z,4.27
2018-12-12T01:43:31.427Z,4.24
2018-12-12T01:44:31.402Z,4.22
2018-12-12T01:45:31.375Z,4.24
2018-12-12T01:46:31.350Z,4.22
2018-12-12T01:47:31.326Z,4.25
2018-12-12T01:48:31.298Z,4.24
2018-12-12T01:49:31.271Z,4.20
2018-12-12T01:50:31.247Z,4.18
2018-12-12T01:51:31.221Z,4.21
2018-12-12T01:52:31.192Z,4.25
2018-12-12T01:53:31.172Z,4.18
2018-12-12T01:54:31.139Z,4.27
2018-12-12T01:55:31.117Z,4.20
2018-12-12T01:56:31.086Z,4.24
2018-12-12T01:57:31.064Z,4.18
2018-12-12T01:58:31.045Z,4.10
2018-12-12T01:59:31.011Z,4.09
2018-12-12T02:00:30.983Z,4.10
2018-12-12T02:01:30.962Z,4.12
2018-12-12T02:02:30.930Z,4.21
2018-12-12T02:03:30.904Z,4.20
2018-12-12T02:04:30.884Z,4.13
2018-12-12T02:05:30.851Z,4.07
2018-12-12T02:06:30.824Z,4.16
2018-12-12T02:07:30.802Z,4.16
2018-12-12T02:08:30.772Z,4.10
2018-12-12T02:09:30.748Z,4.21
2018-12-12T02:10:30.720Z,4.20
2018-12-12T02:11:30.694Z,4.14
2018-12-12T02:12:30.667Z,4.18
2018-12-12T02:13:30.641Z,4.13
2018-12-12T02:14:30.615Z,4.24
2018-12-12T02:15:30.589Z,4.25
2018-12-12T02:16:30.563Z,4.21
2018-12-12T02:17:30.535Z,4.25
2018-12-12T02:18:30.514Z,4.25
2018-12-12T02:19:30.486Z,4.30
2018-12-12T02:20:30.457Z,4.38
2018-12-12T02:21:30.432Z,4.28
2018-12-12T02:22:30.407Z,4.31
2018-12-12T02:23:30.379Z,4.30
2018-12-12T02:24:30.356Z,4.38
2018-12-12T02:25:30.332Z,4.30
2018-12-12T02:26:30.300Z,4.30
2018-12-12T02:27:30.274Z,4.32
2018-12-12T02:28:30.248Z,4.38
2018-12-12T02:29:30.231Z,4.32
2018-12-12T02:30:30.196Z,4.38
2018-12-12T02:31:30.171Z,4.38
2018-12-12T02:32:30.144Z,4.40
2018-12-12T02:33:30.118Z,4.43
2018-12-12T02:34:30.093Z,4.38
2018-12-12T02:35:30.067Z,4.42
2018-12-12T02:36:30.039Z,4.45
2018-12-12T02:37:30.032Z,4.43
2018-12-12T02:38:29.986Z,4.43
2018-12-12T02:39:29.960Z,4.43
2018-12-12T02:40:29.933Z,4.45
2018-12-12T02:41:29.910Z,4.42
2018-12-12T02:42:29.898Z,4.46
2018-12-12T02:43:29.855Z,4.46
2018-12-12T02:44:29.830Z,4.43
2018-12-12T02:45:29.804Z,4.34
2018-12-12T02:46:29.780Z,4.50
2018-12-12T02:47:29.751Z,4.56
2018-12-12T02:48:29.726Z,4.49
2018-12-12T02:49:29.698Z,4.50
2018-12-12T02:50:29.672Z,4.50
2018-12-12T02:51:29.649Z,4.49
2018-12-12T02:52:29.622Z,4.56
2018-12-12T02:53:29.594Z,4.46
2018-12-12T02:54:29.575Z,4.58
2018-12-12T02:55:29.545Z,4.43
2018-12-12T02:56:29.520Z,4.56
2018-12-12T02:57:29.491Z,4.57
2018-12-12T02:58:29.462Z,4.61
2018-12-12T02:59:29.438Z,4.57
2018-12-12T03:00:29.411Z,4.57
2018-12-12T03:01:29.386Z,4.57
2018-12-12T03:02:29.362Z,4.57
2018-12-12T03:03:29.338Z,4.48
2018-12-12T03:04:29.306Z,4.56
2018-12-12T03:05:29.284Z,4.48
2018-12-12T03:06:29.256Z,4.53
2018-12-12T03:07:29.230Z,4.52
2018-12-12T03:08:29.204Z,4.52
2018-12-12T03:09:29.176Z,4.49
2018-12-12T03:10:29.149Z,4.45
2018-12-12T03:11:29.125Z,4.45
2018-12-12T03:12:29.097Z,4.45
2018-12-12T03:13:29.072Z,4.48
2018-12-12T03:14:29.046Z,4.56
2018-12-12T03:15:29.021Z,4.58
2018-12-12T03:16:28.993Z,4.52
2018-12-12T03:17:28.967Z,4.50
2018-12-12T03:18:28.958Z,4.49
2018-12-12T03:19:28.915Z,4.57
2018-12-12T03:20:28.890Z,4.57
2018-12-12T03:21:28.863Z,4.58
2018-12-12T03:22:28.835Z,4.56
2018-12-12T03:23:28.811Z,4.57
2018-12-12T03:24:28.783Z,4.52
2018-12-12T03:25:28.757Z,4.49
2018-12-12T03:26:28.734Z,4.53
2018-12-12T03:27:28.707Z,4.52
2018-12-12T03:28:28.679Z,4.56
2018-12-12T03:29:28.655Z,4.52
2018-12-12T03:30:28.630Z,4.48
2018-12-12T03:31:28.604Z,4.49
2018-12-12T03:32:28.579Z,4.46
2018-12-12T03:33:28.550Z,4.46
2018-12-12T03:34:28.528Z,4.43
2018-12-12T03:35:28.571Z,4.48
2018-12-12T03:36:28.472Z,4.42
2018-12-12T03:37:28.447Z,4.36
2018-12-12T03:38:28.421Z,4.43
2018-12-12T03:39:28.392Z,4.40
2018-12-12T03:40:28.397Z,4.38
2018-12-12T03:41:28.345Z,4.49
2018-12-12T03:42:28.313Z,4.43
2018-12-12T03:43:28.290Z,4.42
2018-12-12T03:44:28.262Z,4.38
2018-12-12T03:45:28.247Z,4.40
2018-12-12T03:46:28.211Z,4.32
2018-12-12T03:47:28.183Z,4.30
2018-12-12T03:48:28.157Z,4.38
2018-12-12T03:49:28.134Z,4.36
2018-12-12T03:50:28.107Z,4.32
2018-12-12T03:51:28.082Z,4.32
2018-12-12T03:52:28.052Z,4.30
2018-12-12T03:53:28.028Z,4.31
2018-12-12T03:54:27.999Z,4.30
2018-12-12T03:55:27.979Z,4.32
2018-12-12T03:56:27.947Z,4.32
2018-12-12T03:57:27.922Z,4.36
2018-12-12T03:58:27.897Z,4.31
2018-12-12T03:59:27.873Z,4.28
2018-12-12T04:00:27.842Z,4.36
2018-12-12T04:01:27.815Z,4.25
2018-12-12T04:02:27.792Z,4.32
2018-12-12T04:03:27.767Z,4.36
2018-12-12T04:04:27.737Z,4.32
2018-12-12T04:05:27.711Z,4.31
2018-12-12T04:06:27.686Z,4.36
2018-12-12T04:07:27.665Z,4.34
2018-12-12T04:08:27.635Z,4.32
2018-12-12T04:09:27.624Z,4.30
2018-12-12T04:10:27.582Z,4.32
2018-12-12T04:11:27.557Z,4.31
2018-12-12T04:12:27.532Z,4.34
2018-12-12T04:13:27.509Z,4.34
2018-12-12T04:14:27.476Z,4.30
2018-12-12T04:15:27.450Z,4.30
2018-12-12T04:16:27.424Z,4.31
2018-12-12T04:17:27.397Z,4.39
2018-12-12T04:18:27.371Z,4.34
2018-12-12T04:19:27.346Z,4.34
2018-12-12T04:20:27.320Z,4.36
2018-12-12T04:21:27.294Z,4.30
2018-12-12T04:22:27.267Z,4.32
2018-12-12T04:23:27.247Z,4.36
2018-12-12T04:24:27.215Z,4.34
2018-12-12T04:25:27.191Z,4.30
2018-12-12T04:26:27.162Z,4.34
2018-12-12T04:27:27.138Z,4.38
2018-12-12T04:28:27.115Z,4.39
2018-12-12T04:29:27.083Z,4.42
2018-12-12T04:30:27.058Z,4.42
2018-12-12T04:31:27.031Z,4.42
2018-12-12T04:32:27.005Z,4.38
2018-12-12T04:33:26.979Z,4.43
2018-12-12T04:34:26.953Z,4.39
2018-12-12T04:35:26.927Z,4.45
2018-12-12T04:36:26.902Z,4.39
2018-12-12T04:37:26.876Z,4.45
2018-12-12T04:38:26.851Z,4.52
2018-12-12T04:39:26.823Z,4.39
2018-12-12T04:40:26.800Z,4.38
2018-12-12T04:41:26.773Z,4.43
2018-12-12T04:42:26.746Z,4.39
2018-12-12T04:43:26.718Z,4.42
2018-12-12T04:44:26.693Z,4.40
2018-12-12T04:45:26.666Z,4.40
2018-12-12T04:46:26.643Z,4.46
2018-12-12T04:47:26.614Z,4.39
2018-12-12T04:48:26.589Z,4.45
2018-12-12T04:49:26.562Z,4.42
2018-12-12T04:50:26.536Z,4.43
2018-12-12T04:51:26.511Z,4.40
2018-12-12T04:52:26.482Z,4.32
2018-12-12T04:53:26.458Z,4.31
2018-12-12T04:54:26.431Z,4.30
2018-12-12T04:55:26.404Z,4.32
2018-12-12T04:56:26.380Z,4.20
2018-12-12T04:57:26.356Z,4.21
2018-12-12T04:58:26.327Z,4.18
2018-12-12T04:59:26.305Z,4.12
2018-12-12T05:00:26.275Z,4.06
2018-12-12T05:01:26.248Z,3.99
2018-12-12T05:02:26.224Z,4.00
2018-12-12T05:03:26.196Z,3.91
2018-12-12T05:04:26.169Z,3.94
2018-12-12T05:05:26.151Z,3.85
2018-12-12T05:06:26.116Z,3.78
2018-12-12T05:07:26.092Z,3.71
2018-12-12T05:08:26.063Z,3.68
2018-12-12T05:09:26.040Z,3.66
2018-12-12T05:10:26.012Z,3.63
2018-12-12T05:11:25.991Z,3.66
2018-12-12T05:12:25.958Z,3.56
2018-12-12T05:13:25.931Z,3.56
2018-12-12T05:14:25.906Z,3.59
2018-12-12T05:15:25.879Z,3.61
2018-12-12T05:16:25.852Z,3.50
2018-12-12T05:17:25.826Z,3.61
2018-12-12T05:18:25.802Z,3.45
2018-12-12T05:19:26.458Z,3.43
2018-12-12T05:20:25.749Z,3.45
2018-12-12T05:21:25.726Z,3.40
2018-12-12T05:22:25.696Z,3.33
2018-12-12T05:23:25.667Z,3.37
2018-12-12T05:24:25.646Z,3.41
2018-12-12T05:25:25.619Z,3.34
2018-12-12T05:26:25.589Z,3.33
2018-12-12T05:27:25.564Z,3.37
2018-12-12T05:28:25.536Z,3.36
2018-12-12T05:29:25.507Z,3.26
2018-12-12T05:30:25.484Z,3.27
2018-12-12T05:31:25.458Z,3.24
2018-12-12T05:32:25.428Z,3.29
2018-12-12T05:33:25.401Z,3.29
2018-12-12T05:34:25.376Z,3.29
2018-12-12T05:35:25.350Z,3.26
2018-12-12T05:36:25.325Z,3.30
2018-12-12T05:37:25.294Z,3.30
2018-12-12T05:38:25.279Z,3.30
2018-12-12T05:39:25.244Z,3.30
2018-12-12T05:40:25.212Z,3.29
2018-12-12T05:41:25.188Z,3.27
2018-12-12T05:42:25.160Z,3.34
2018-12-12T05:43:25.134Z,3.26
2018-12-12T05:44:25.108Z,3.36
2018-12-12T05:45:25.080Z,3.36
2018-12-12T05:46:25.053Z,3.34
2018-12-12T05:47:25.027Z,3.43
2018-12-12T05:48:25.000Z,3.48
2018-12-12T05:49:24.973Z,3.43
2018-12-12T05:50:24.947Z,3.50
2018-12-12T05:51:24.919Z,3.49
2018-12-12T05:52:24.892Z,3.43
2018-12-12T05:53:24.866Z,3.49
2018-12-12T05:54:24.839Z,3.50
2018-12-12T05:55:24.813Z,3.40
2018-12-12T05:56:24.785Z,3.34
2018-12-12T05:57:24.763Z,3.41
2018-12-12T05:58:24.732Z,3.48
2018-12-12T05:59:24.707Z,3.46
2018-12-12T06:00:24.678Z,3.49
2018-12-12T06:01:24.672Z,3.55
2018-12-12T06:02:24.624Z,3.48
2018-12-12T06:03:24.598Z,3.55
2018-12-12T06:04:24.575Z,3.52
2018-12-12T06:05:24.545Z,3.52
2018-12-12T06:06:24.519Z,3.50
2018-12-12T06:07:24.494Z,3.61
2018-12-12T06:08:24.464Z,3.46
2018-12-12T06:09:24.442Z,3.61
2018-12-12T06:10:24.411Z,3.61
2018-12-12T06:11:24.387Z,3.64
2018-12-12T06:12:24.381Z,3.70
2018-12-12T06:13:24.333Z,3.71
2018-12-12T06:14:24.305Z,3.63
2018-12-12T06:15:24.278Z,3.67
2018-12-12T06:16:24.252Z,3.68
2018-12-12T06:17:24.225Z,3.70
2018-12-12T06:18:24.199Z,3.61
2018-12-12T06:19:24.179Z,3.71
2018-12-12T06:20:24.144Z,3.67
2018-12-12T06:21:24.118Z,3.76
2018-12-12T06:22:24.095Z,3.68
2018-12-12T06:23:24.065Z,3.68
2018-12-12T06:24:24.039Z,3.71
2018-12-12T06:25:24.012Z,3.74
2018-12-12T06:26:23.986Z,3.77
2018-12-12T06:27:23.961Z,3.73
2018-12-12T06:28:23.932Z,3.77
2018-12-12T06:29:23.907Z,3.85
2018-12-12T06:30:23.880Z,3.84
2018-12-12T06:31:23.853Z,3.88
2018-12-12T06:32:23.828Z,3.84
2018-12-12T06:33:23.800Z,3.88
2018-12-12T06:34:23.778Z,3.95
2018-12-12T06:35:23.748Z,3.92
2018-12-12T06:36:23.723Z,3.89
2018-12-12T06:37:23.693Z,3.94
2018-12-12T06:38:23.667Z,4.00
2018-12-12T06:39:23.642Z,4.00
2018-12-12T06:40:23.618Z,3.94
2018-12-12T06:41:23.588Z,3.95
2018-12-12T06:42:23.562Z,4.03
2018-12-12T06:43:23.539Z,4.06
2018-12-12T06:44:23.511Z,4.06
2018-12-12T06:45:23.485Z,4.04
2018-12-12T06:46:23.455Z,4.07
2018-12-12T06:47:23.432Z,4.03
2018-12-12T06:48:23.405Z,4.10
2018-12-12T06:49:23.376Z,4.06
2018-12-12T06:50:23.350Z,4.13
2018-12-12T06:51:23.324Z,4.03
2018-12-12T06:52:23.297Z,4.10
2018-12-12T06:53:23.275Z,4.16
2018-12-12T06:54:23.244Z,4.12
2018-12-12T06:55:23.219Z,4.16
2018-12-12T06:56:23.195Z,4.18
2018-12-12T06:57:23.166Z,4.14
2018-12-12T06:58:23.139Z,4.14
2018-12-12T06:59:23.114Z,4.24
2018-12-12T07:00:23.085Z,4.12
2018-12-12T07:01:23.059Z,4.12
2018-12-12T07:02:23.034Z,4.12
2018-12-12T07:03:23.009Z,4.10
2018-12-12T07:04:22.981Z,4.20
2018-12-12T07:05:22.954Z,4.22
2018-12-12T07:06:22.928Z,4.14
2018-12-12T07:07:22.902Z,4.22
2018-12-12T07:08:22.875Z,4.20
2018-12-12T07:09:22.849Z,4.14
2018-12-12T07:10:22.823Z,4.20
2018-12-12T07:11:22.797Z,4.27
2018-12-12T07:12:22.769Z,4.28
2018-12-12T07:13:22.745Z,4.21
2018-12-12T07:14:22.717Z,4.30
2018-12-12T07:15:22.692Z,4.32
2018-12-12T07:16:22.664Z,4.38
2018-12-12T07:17:22.640Z,4.36
2018-12-12T07:18:22.614Z,4.28
2018-12-12T07:19:22.585Z,4.32
2018-12-12T07:20:22.559Z,4.31
2018-12-12T07:21:22.534Z,4.36
2018-12-12T07:22:22.507Z,4.36
2018-12-12T07:23:22.481Z,4.39
2018-12-12T07:24:22.455Z,4.40
2018-12-12T07:25:22.433Z,4.43
2018-12-12T07:26:22.405Z,4.40
2018-12-12T07:27:22.377Z,4.36
2018-12-12T07:28:22.351Z,4.42
2018-12-12T07:29:22.325Z,4.45
2018-12-12T07:30:22.298Z,4.49
2018-12-12T07:31:22.274Z,4.48
2018-12-12T07:32:26.019Z,4.52
2018-12-12T07:33:22.219Z,4.50
2018-12-12T07:34:22.196Z,4.43
2018-12-12T07:35:22.172Z,4.49
2018-12-12T07:36:22.139Z,4.53
2018-12-12T07:37:22.114Z,4.52
2018-12-12T07:38:22.088Z,4.43
2018-12-12T07:39:22.061Z,4.48
2018-12-12T07:40:22.037Z,4.45
2018-12-12T07:41:22.011Z,4.45
2018-12-12T07:42:21.983Z,4.40
2018-12-12T07:43:21.957Z,4.48
2018-12-12T07:44:21.930Z,4.49
2018-12-12T07:45:21.906Z,4.45
2018-12-12T07:46:21.880Z,4.43
2018-12-12T07:47:21.853Z,4.56
2018-12-12T07:48:21.827Z,4.58
2018-12-12T07:49:21.805Z,4.58
2018-12-12T07:50:21.776Z,4.52
2018-12-12T07:51:21.749Z,4.52
2018-12-12T07:52:21.722Z,4.58
2018-12-12T07:53:21.695Z,4.53
2018-12-12T07:54:21.670Z,4.58
2018-12-12T07:55:21.646Z,4.56
2018-12-12T07:56:21.618Z,4.56
2018-12-12T07:57:21.590Z,4.57
2018-12-12T07:58:21.566Z,4.60
2018-12-12T07:59:21.539Z,4.53
2018-12-12T08:00:21.516Z,4.53
2018-12-12T08:01:21.487Z,4.53
2018-12-12T08:02:21.463Z,4.56
2018-12-12T08:03:21.434Z,4.56
2018-12-12T08:04:21.407Z,4.64
2018-12-12T08:05:21.382Z,4.56
2018-12-12T08:06:21.355Z,4.60
2018-12-12T08:07:21.330Z,4.53
2018-12-12T08:08:21.304Z,4.50
2018-12-12T08:09:21.277Z,4.52
2018-12-12T08:10:21.251Z,4.64
2018-12-12T08:11:21.226Z,4.53
2018-12-12T08:12:21.200Z,4.66
2018-12-12T08:13:21.175Z,4.67
2018-12-12T08:14:21.159Z,4.68
2018-12-12T08:15:21.125Z,4.64
2018-12-12T08:16:21.095Z,4.61
2018-12-12T08:17:21.068Z,4.68
2018-12-12T08:18:21.045Z,4.71
2018-12-12T08:19:21.018Z,4.64
2018-12-12T08:20:20.991Z,4.66
2018-12-12T08:21:20.965Z,4.71
2018-12-12T08:22:20.939Z,4.67
2018-12-12T08:23:20.913Z,4.67
2018-12-12T08:24:20.887Z,4.71
2018-12-12T08:25:20.861Z,4.70
2018-12-12T08:26:20.834Z,4.61
2018-12-12T08:27:20.808Z,4.68
2018-12-12T08:28:20.783Z,4.74
2018-12-12T08:29:20.757Z,4.75
2018-12-12T08:30:20.731Z,4.68
2018-12-12T08:31:20.706Z,4.75
2018-12-12T08:32:20.677Z,4.76
2018-12-12T08:33:20.652Z,4.78
2018-12-12T08:34:20.626Z,4.87
2018-12-12T08:35:20.601Z,4.78
2018-12-12T08:36:20.572Z,4.83
2018-12-12T08:37:20.556Z,4.75
2018-12-12T08:38:20.522Z,4.75
2018-12-12T08:39:20.497Z,4.79
2018-12-12T08:40:20.470Z,4.87
2018-12-12T08:41:20.445Z,4.83
2018-12-12T08:42:20.420Z,4.78
2018-12-12T08:43:20.392Z,4.86
2018-12-12T08:44:20.366Z,4.84
2018-12-12T08:45:20.340Z,4.90
2018-12-12T08:46:20.315Z,4.87
2018-12-12T08:47:20.290Z,4.83
2018-12-12T08:48:20.266Z,4.94
2018-12-12T08:49:20.244Z,4.84
2018-12-12T08:50:20.210Z,4.87
2018-12-12T08:51:20.184Z,5.00
2018-12-12T08:52:20.159Z,4.98
2018-12-12T08:53:20.133Z,5.00
2018-12-12T08:54:20.107Z,5.04
2018-12-12T08:55:20.082Z,4.95
2018-12-12T08:56:20.063Z,5.07
2018-12-12T08:57:20.030Z,5.08
2018-12-12T08:58:20.004Z,5.07
2018-12-12T08:59:19.978Z,5.07
2018-12-12T09:00:19.951Z,5.08
2018-12-12T09:01:19.926Z,5.10
2018-12-12T09:02:19.901Z,5.12
2018-12-12T09:03:19.875Z,5.12
2018-12-12T09:04:19.850Z,5.15
2018-12-12T09:05:19.823Z,5.22
2018-12-12T09:06:19.797Z,5.26
2018-12-12T09:07:19.771Z,5.16
2018-12-12T09:08:19.745Z,5.26
2018-12-12T09:09:19.719Z,5.20
2018-12-12T09:10:19.694Z,5.20
2018-12-12T09:11:19.676Z,5.31
2018-12-12T09:12:19.642Z,5.34
2018-12-12T09:13:19.618Z,5.37
2018-12-12T09:14:19.594Z,5.41
2018-12-12T09:15:19.565Z,5.34
2018-12-12T09:16:19.540Z,5.34
2018-12-12T09:17:19.514Z,5.31
2018-12-12T09:18:19.490Z,5.47
2018-12-12T09:19:19.464Z,5.36
2018-12-12T09:20:19.438Z,5.41
2018-12-12T09:21:19.414Z,5.34
2018-12-12T09:22:19.387Z,5.41
2018-12-12T09:23:19.363Z,5.33
2018-12-12T09:24:19.338Z,5.44
2018-12-12T09:25:19.309Z,5.38
2018-12-12T09:26:19.284Z,5.40
2018-12-12T09:27:19.260Z,5.46
2018-12-12T09:28:19.233Z,5.54
2018-12-12T09:29:19.208Z,5.47
2018-12-12T09:30:19.183Z,5.47
2018-12-12T09:31:19.157Z,5.51
2018-12-12T09:32:19.131Z,5.46
2018-12-12T09:33:24.524Z,5.44
2018-12-12T09:34:19.079Z,5.51
2018-12-12T09:35:19.077Z,5.58
2018-12-12T09:36:19.029Z,5.56
2018-12-12T09:37:19.003Z,5.58
2018-12-12T09:38:18.978Z,5.55
2018-12-12T09:39:18.955Z,5.69
2018-12-12T09:40:18.927Z,5.61
2018-12-12T09:41:18.904Z,5.64
2018-12-12T09:42:18.877Z,5.73
2018-12-12T09:43:18.852Z,5.70
2018-12-12T09:44:18.825Z,5.67
2018-12-12T09:45:21.694Z,5.73
2018-12-12T09:46:18.777Z,5.67
2018-12-12T09:47:18.753Z,5.80
2018-12-12T09:48:19.752Z,5.76
2018-12-12T09:49:18.699Z,5.81
2018-12-12T09:50:18.673Z,5.79
2018-12-12T09:51:18.648Z,5.87
2018-12-12T09:52:18.623Z,5.80
2018-12-12T09:53:18.597Z,5.88
2018-12-12T09:54:18.572Z,5.87
2018-12-12T09:55:18.547Z,5.92
2018-12-12T09:56:18.524Z,5.87
2018-12-12T09:57:18.501Z,5.83
2018-12-12T09:58:18.472Z,5.88
2018-12-12T09:59:18.449Z,5.90
2018-12-12T10:00:18.425Z,5.95
2018-12-12T10:01:18.396Z,5.98
2018-12-12T10:02:18.372Z,5.91
2018-12-12T10:03:18.348Z,5.91
2018-12-12T10:04:18.323Z,5.90
2018-12-12T10:05:18.296Z,5.95
2018-12-12T10:06:18.271Z,6.01
2018-12-12T10:07:18.245Z,5.99
2018-12-12T10:08:18.222Z,5.99
2018-12-12T10:09:18.195Z,6.05
2018-12-12T10:10:18.171Z,5.97
2018-12-12T10:11:18.146Z,5.98
2018-12-12T10:12:18.119Z,5.94
2018-12-12T10:13:18.093Z,5.99
2018-12-12T10:14:18.070Z,5.99
2018-12-12T10:15:18.045Z,5.99
2018-12-12T10:16:18.948Z,6.01
2018-12-12T10:17:17.997Z,5.98
2018-12-12T10:18:17.972Z,5.97
2018-12-12T10:19:17.945Z,6.05
2018-12-12T10:20:17.919Z,5.97
2018-12-12T10:21:17.893Z,6.05
2018-12-12T10:22:17.870Z,5.99
2018-12-12T10:23:17.845Z,6.10
2018-12-12T10:24:17.818Z,5.99
2018-12-12T10:25:17.796Z,6.02
2018-12-12T10:26:17.770Z,6.07
2018-12-12T10:27:17.745Z,6.15
2018-12-12T10:28:17.720Z,6.09
2018-12-12T10:29:17.693Z,6.19
2018-12-12T10:30:17.669Z,6.16
2018-12-12T10:31:17.642Z,6.17
2018-12-12T10:32:17.617Z,6.15
2018-12-12T10:33:17.595Z,6.16
2018-12-12T10:34:17.570Z,6.10
2018-12-12T10:35:17.544Z,6.17
2018-12-12T10:36:17.516Z,6.09
2018-12-12T10:37:17.492Z,6.22
2018-12-12T10:38:17.469Z,6.17
2018-12-12T10:39:17.443Z,6.29
2018-12-12T10:40:17.419Z,6.22
2018-12-12T10:41:17.392Z,6.25
2018-12-12T10:42:17.368Z,6.36
2018-12-12T10:43:17.349Z,6.31
2018-12-12T10:44:17.318Z,6.35
2018-12-12T10:45:17.292Z,6.36
2018-12-12T10:46:17.271Z,6.46
2018-12-12T10:47:17.244Z,6.43
2018-12-12T10:48:17.218Z,6.39
2018-12-12T10:49:17.193Z,6.39
2018-12-12T10:50:17.169Z,6.41
2018-12-12T10:51:17.145Z,6.41
2018-12-12T10:52:17.121Z,6.39
2018-12-12T10:53:17.103Z,6.41
2018-12-12T10:54:17.069Z,6.49
2018-12-12T10:55:17.047Z,6.41
2018-12-12T10:56:17.041Z,6.54
2018-12-12T10:57:16.995Z,6.54
2018-12-12T10:58:16.973Z,6.54
2018-12-12T10:59:16.947Z,6.47
2018-12-12T11:00:16.923Z,6.54
2018-12-12T11:01:16.896Z,6.57
2018-12-12T11:02:16.871Z,6.59
2018-12-12T11:03:16.849Z,6.67
2018-12-12T11:04:16.822Z,6.56
2018-12-12T11:05:16.800Z,6.60
2018-12-12T11:06:16.782Z,6.67
2018-12-12T11:07:16.749Z,6.64
2018-12-12T11:08:16.724Z,6.67
2018-12-12T11:09:16.701Z,6.71
2018-12-12T11:10:16.675Z,6.75
2018-12-12T11:11:16.654Z,6.80
2018-12-12T11:12:16.627Z,6.71
2018-12-12T11:13:16.603Z,6.71
2018-12-12T11:14:16.578Z,6.78
2018-12-12T11:15:16.556Z,6.80
2018-12-12T11:16:16.528Z,6.78
2018-12-12T11:17:16.504Z,6.82
2018-12-12T11:18:16.480Z,6.87
2018-12-12T11:19:16.456Z,6.78
2018-12-12T11:20:16.430Z,6.92
2018-12-12T11:21:16.405Z,6.97
2018-12-12T11:22:16.381Z,6.82
2018-12-12T11:23:16.357Z,6.90
2018-12-12T11:24:16.333Z,6.96
2018-12-12T11:25:16.309Z,6.97
2018-12-12T11:26:16.283Z,6.92
2018-12-12T11:27:16.261Z,6.95
2018-12-12T11:28:16.236Z,7.05
2018-12-12T11:29:16.210Z,6.95
2018-12-12T11:30:16.186Z,7.05
2018-12-12T11:31:16.163Z,7.01
2018-12-12T11:32:16.138Z,7.11
2018-12-12T11:33:16.113Z,7.04
2018-12-12T11:34:16.091Z,7.04
2018-12-12T11:35:16.067Z,7.03
2018-12-12T11:36:16.041Z,7.05
2018-12-12T11:37:16.018Z,7.13
2018-12-12T11:38:15.993Z,7.11
2018-12-12T11:39:15.970Z,7.10
2018-12-12T11:40:15.944Z,7.08
2018-12-12T11:41:15.920Z,7.11
2018-12-12T11:42:15.896Z,7.14
2018-12-12T11:43:15.872Z,7.21
2018-12-12T11:44:15.848Z,7.23
2018-12-12T11:45:15.824Z,7.23
2018-12-12T11:46:15.800Z,7.13
2018-12-12T11:47:15.776Z,7.11
2018-12-12T11:48:15.751Z,7.18
2018-12-12T11:49:15.732Z,7.19
2018-12-12T11:50:15.704Z,7.21
2018-12-12T11:51:15.679Z,7.18
2018-12-12T11:52:15.654Z,7.22
2018-12-12T11:53:15.631Z,7.14
2018-12-12T11:54:15.607Z,7.11
2018-12-12T11:55:15.585Z,7.15
2018-12-12T11:56:15.558Z,7.13
2018-12-12T11:57:15.534Z,7.07
2018-12-12T11:58:15.512Z,7.08
2018-12-12T11:59:15.487Z,6.93
2018-12-12T12:00:15.461Z,7.05
2018-12-12T12:01:15.439Z,7.01
2018-12-12T12:02:15.414Z,7.07
2018-12-12T12:03:15.390Z,7.11
2018-12-12T12:04:15.364Z,7.11
2018-12-12T12:05:15.344Z,7.01
2018-12-12T12:06:15.320Z,7.03
2018-12-12T12:07:15.294Z,6.93
2018-12-12T12:08:15.269Z,6.92
2018-12-12T12:09:15.247Z,6.96
2018-12-12T12:10:15.221Z,6.90
2018-12-12T12:11:15.196Z,6.86
2018-12-12T12:12:15.174Z,6.83
2018-12-12T12:13:15.148Z,6.82
2018-12-12T12:14:15.125Z,6.78
2018-12-12T12:15:15.101Z,6.80
2018-12-12T12:16:15.075Z,6.80
2018-12-12T12:17:15.060Z,6.78
2018-12-12T12:18:15.043Z,6.95
2018-12-12T12:19:15.007Z,6.95
2018-12-12T12:20:14.979Z,6.96
2018-12-12T12:21:14.955Z,6.93
2018-12-12T12:22:14.934Z,7.01
2018-12-12T12:23:14.908Z,7.14
2018-12-12T12:24:14.883Z,7.07
2018-12-12T12:25:14.859Z,7.23
2018-12-12T12:26:14.834Z,7.19
2018-12-12T12:27:14.811Z,7.33
2018-12-12T12:28:14.786Z,7.33
2018-12-12T12:29:14.762Z,7.31
2018-12-12T12:30:14.737Z,7.44
2018-12-12T12:31:14.716Z,7.44
2018-12-12T12:32:14.688Z,7.47
2018-12-12T12:33:14.664Z,7.48
2018-12-12T12:34:14.641Z,7.61
2018-12-12T12:35:14.618Z,7.69
2018-12-12T12:36:14.595Z,7.72
2018-12-12T12:37:14.571Z,7.62
2018-12-12T12:38:14.545Z,7.72
2018-12-12T12:39:14.524Z,7.77
2018-12-12T12:40:14.498Z,7.74
2018-12-12T12:41:14.474Z,7.69
2018-12-12T12:42:14.453Z,7.72
2018-12-12T12:43:14.427Z,7.62
2018-12-12T12:44:14.403Z,7.69
2018-12-12T12:45:14.378Z,7.67
2018-12-12T12:46:14.356Z,7.61
2018-12-12T12:47:14.332Z,7.64
2018-12-12T12:48:14.308Z,7.66
2018-12-12T12:49:14.285Z,7.67
2018-12-12T12:50:14.259Z,7.72
2018-12-12T12:51:14.240Z,7.56
2018-12-12T12:52:14.212Z,7.69
2018-12-12T12:53:14.268Z,7.61
2018-12-12T12:54:14.166Z,7.55
2018-12-12T12:55:14.144Z,7.48
2018-12-12T12:56:14.170Z,7.48
2018-12-12T12:57:14.095Z,7.53
2018-12-12T12:58:14.076Z,7.56
2018-12-12T12:59:14.046Z,7.64
2018-12-12T13:00:14.026Z,7.47
2018-12-12T13:01:14.018Z,7.51
2018-12-12T13:02:13.976Z,7.43
2018-12-12T13:03:13.952Z,7.47
2018-12-12T13:04:13.927Z,7.44
2018-12-12T13:05:13.905Z,7.46
2018-12-12T13:06:13.914Z,7.44
2018-12-12T13:07:13.859Z,7.41
2018-12-12T13:08:13.838Z,7.47
2018-12-12T13:09:13.808Z,7.43
2018-12-12T13:10:13.786Z,7.41
2018-12-12T13:11:14.970Z,7.41
2018-12-12T13:12:13.933Z,7.29
2018-12-12T13:13:13.826Z,7.23
2018-12-12T13:14:13.736Z,7.23
2018-12-12T13:15:13.665Z,7.13
2018-12-12T13:16:13.641Z,7.04
2018-12-12T13:17:13.618Z,6.90
2018-12-12T13:18:13.594Z,6.96